Terminal Aerodrome Forecast
Issued by NWS Upton, NY

Home | Current Version | Previous Version | Text Only | Print | Product List | Glossary On
Versions: 1 2 3 4 5 6 7 8 9 10 11 12 13 14 15 16 17 18 19 20 21 22 23 24 25 26 27 28 29 30 31 32 33 34 35 36 37 38 39 40
851
FTUS41 KOKX 281728
TAFISP
TAF
KISP 281728Z 2818/0118 16007KT P6SM BKN010 OVC040
     FM282100 15010KT P6SM BKN007 OVC020
     FM010000 15010KT 3SM BR BKN006 OVC010
     FM010300 16007KT 1SM -RA BR OVC004
     FM010700 18009KT 1SM -RA BR OVC004 WS020/24045KT
     FM010900 19010KT 3SM BR OVC004 WS020/24045KT
     FM011600 21013G21KT 5SM -SHRA BR OVC008=

USA.gov is the U.S. government's official web portal to all federal, state and local government web resources and services.